sensor_id;sensor_type;location;lat;lon;timestamp;temperature;humidity
20977;DHT22;10647;51.016;3.720;2022-11-20T00:02:25;7.30;99.90
20977;DHT22;10647;51.016;3.720;2022-11-20T00:04:53;7.30;99.90
20977;DHT22;10647;51.016;3.720;2022-11-20T00:07:22;7.30;99.90
20977;DHT22;10647;51.016;3.720;2022-11-20T00:09:52;7.20;99.90
20977;DHT22;10647;51.016;3.720;2022-11-20T00:12:19;7.20;99.90
20977;DHT22;10647;51.016;3.720;2022-11-20T00:14:47;7.20;99.90
20977;DHT22;10647;51.016;3.720;2022-11-20T00:17:17;7.20;99.90
20977;DHT22;10647;51.016;3.720;2022-11-20T00:19:45;7.20;99.90
20977;DHT22;10647;51.016;3.720;2022-11-20T00:22:12;7.20;99.90
20977;DHT22;10647;51.016;3.720;2022-11-20T00:24:46;7.20;99.90
20977;DHT22;10647;51.016;3.720;2022-11-20T00:27:14;7.10;99.90
20977;DHT22;10647;51.016;3.720;2022-11-20T00:29:44;7.10;99.90
20977;DHT22;10647;51.016;3.720;2022-11-20T00:32:18;7.10;99.90
20977;DHT22;10647;51.016;3.720;2022-11-20T00:34:48;7.10;99.90
20977;DHT22;10647;51.016;3.720;2022-11-20T00:37:15;7.10;99.90
20977;DHT22;10647;51.016;3.720;2022-11-20T00:39:43;7.10;99.90
20977;DHT22;10647;51.016;3.720;2022-11-20T00:42:10;7.20;99.90
20977;DHT22;10647;51.016;3.720;2022-11-20T00:44:38;7.20;99.90
20977;DHT22;10647;51.016;3.720;2022-11-20T00:47:05;7.20;99.90
20977;DHT22;10647;51.016;3.720;2022-11-20T00:49:33;7.20;99.90
20977;DHT22;10647;51.016;3.720;2022-11-20T00:52:00;7.20;99.90
20977;DHT22;10647;51.016;3.720;2022-11-20T00:54:29;7.30;99.90
20977;DHT22;10647;51.016;3.720;2022-11-20T00:56:56;7.30;99.90
20977;DHT22;10647;51.016;3.720;2022-11-20T00:59:26;7.30;99.90
20977;DHT22;10647;51.016;3.720;2022-11-20T01:01:54;7.40;99.90
20977;DHT22;10647;51.016;3.720;2022-11-20T01:04:22;7.40;99.90
20977;DHT22;10647;51.016;3.720;2022-11-20T01:06:51;7.40;99.90
20977;DHT22;10647;51.016;3.720;2022-11-20T01:09:19;7.40;99.90
20977;DHT22;10647;51.016;3.720;2022-11-20T01:11:46;7.40;99.90
20977;DHT22;10647;51.016;3.720;2022-11-20T01:17:14;7.50;99.90
20977;DHT22;10647;51.016;3.720;2022-11-20T01:19:51;7.50;99.90
20977;DHT22;10647;51.016;3.720;2022-11-20T01:22:20;7.50;99.90
20977;DHT22;10647;51.016;3.720;2022-11-20T01:24:50;7.50;99.90
20977;DHT22;10647;51.016;3.720;2022-11-20T01:27:18;7.50;99.90
20977;DHT22;10647;51.016;3.720;2022-11-20T01:29:47;7.50;99.90
20977;DHT22;10647;51.016;3.720;2022-11-20T01:32:15;7.60;99.90
20977;DHT22;10647;51.016;3.720;2022-11-20T01:34:43;7.50;99.90
20977;DHT22;10647;51.016;3.720;2022-11-20T01:37:13;7.50;99.90
20977;DHT22;10647;51.016;3.720;2022-11-20T01:39:41;7.50;99.90
20977;DHT22;10647;51.016;3.720;2022-11-20T01:42:14;7.50;99.90
20977;DHT22;10647;51.016;3.720;2022-11-20T01:45:00;7.50;99.90
20977;DHT22;10647;51.016;3.720;2022-11-20T01:50:17;7.50;99.90
20977;DHT22;10647;51.016;3.720;2022-11-20T01:52:50;7.50;99.90
20977;DHT22;10647;51.016;3.720;2022-11-20T01:55:24;7.50;99.90
20977;DHT22;10647;51.016;3.720;2022-11-20T01:57:51;7.50;99.90
20977;DHT22;10647;51.016;3.720;2022-11-20T02:00:25;7.50;99.90
20977;DHT22;10647;51.016;3.720;2022-11-20T02:02:58;7.50;99.90
20977;DHT22;10647;51.016;3.720;2022-11-20T02:05:32;7.50;99.90
20977;DHT22;10647;51.016;3.720;2022-11-20T02:08:05;7.50;99.90
20977;DHT22;10647;51.016;3.720;2022-11-20T02:10:36;7.50;99.90
20977;DHT22;10647;51.016;3.720;2022-11-20T02:13:03;7.50;99.90
20977;DHT22;10647;51.016;3.720;2022-11-20T02:16:10;7.60;99.90
20977;DHT22;10647;51.016;3.720;2022-11-20T02:18:40;7.60;99.90
20977;DHT22;10647;51.016;3.720;2022-11-20T02:21:17;7.60;99.90
20977;DHT22;10647;51.016;3.720;2022-11-20T02:26:35;7.60;99.90
20977;DHT22;10647;51.016;3.720;2022-11-20T02:29:03;7.60;99.90
20977;DHT22;10647;51.016;3.720;2022-11-20T02:31:36;7.60;99.90
20977;DHT22;10647;51.016;3.720;2022-11-20T02:34:04;7.60;99.90
20977;DHT22;10647;51.016;3.720;2022-11-20T02:36:36;7.60;99.90
20977;DHT22;10647;51.016;3.720;2022-11-20T02:39:11;7.60;99.90
20977;DHT22;10647;51.016;3.720;2022-11-20T02:41:48;7.60;99.90
20977;DHT22;10647;51.016;3.720;2022-11-20T02:44:16;7.50;99.90
20977;DHT22;10647;51.016;3.720;2022-11-20T02:46:44;7.50;99.90
20977;DHT22;10647;51.016;3.720;2022-11-20T02:49:14;7.50;99.90
20977;DHT22;10647;51.016;3.720;2022-11-20T02:52:02;7.50;99.90
20977;DHT22;10647;51.016;3.720;2022-11-20T02:54:30;7.50;99.90
20977;DHT22;10647;51.016;3.720;2022-11-20T02:56:58;7.50;99.90
20977;DHT22;10647;51.016;3.720;2022-11-20T02:59:28;7.50;99.90
20977;DHT22;10647;51.016;3.720;2022-11-20T03:01:56;7.50;99.90
20977;DHT22;10647;51.016;3.720;2022-11-20T03:04:26;7.50;99.90
20977;DHT22;10647;51.016;3.720;2022-11-20T03:06:57;7.50;99.90
20977;DHT22;10647;51.016;3.720;2022-11-20T03:09:36;7.50;99.90
20977;DHT22;10647;51.016;3.720;2022-11-20T03:12:07;7.50;99.90
20977;DHT22;10647;51.016;3.720;2022-11-20T03:14:44;7.60;99.90
20977;DHT22;10647;51.016;3.720;2022-11-20T03:17:17;7.60;99.90
20977;DHT22;10647;51.016;3.720;2022-11-20T03:19:47;7.60;99.90
20977;DHT22;10647;51.016;3.720;2022-11-20T03:22:14;7.60;99.90
20977;DHT22;10647;51.016;3.720;2022-11-20T03:24:43;7.60;99.90
20977;DHT22;10647;51.016;3.720;2022-11-20T03:27:11;7.60;99.90
20977;DHT22;10647;51.016;3.720;2022-11-20T03:29:39;7.70;99.90
20977;DHT22;10647;51.016;3.720;2022-11-20T03:32:07;7.70;99.90
20977;DHT22;10647;51.016;3.720;2022-11-20T03:34:35;7.70;99.90
20977;DHT22;10647;51.016;3.720;2022-11-20T03:37:02;7.70;99.90
20977;DHT22;10647;51.016;3.720;2022-11-20T03:39:31;7.70;99.90
20977;DHT22;10647;51.016;3.720;2022-11-20T03:41:59;7.70;99.90
20977;DHT22;10647;51.016;3.720;2022-11-20T03:44:27;7.70;99.90
20977;DHT22;10647;51.016;3.720;2022-11-20T03:46:57;7.80;99.90
20977;DHT22;10647;51.016;3.720;2022-11-20T03:49:25;7.70;99.90
20977;DHT22;10647;51.016;3.720;2022-11-20T03:51:59;7.70;99.90
20977;DHT22;10647;51.016;3.720;2022-11-20T03:54:42;7.70;99.90
20977;DHT22;10647;51.016;3.720;2022-11-20T03:57:12;7.60;99.90
20977;DHT22;10647;51.016;3.720;2022-11-20T03:59:43;7.50;99.90
20977;DHT22;10647;51.016;3.720;2022-11-20T04:02:10;7.50;99.90
20977;DHT22;10647;51.016;3.720;2022-11-20T04:04:44;7.50;99.90
20977;DHT22;10647;51.016;3.720;2022-11-20T04:07:17;7.60;99.90
20977;DHT22;10647;51.016;3.720;2022-11-20T04:09:45;7.50;99.90
20977;DHT22;10647;51.016;3.720;2022-11-20T04:12:24;7.50;99.90
20977;DHT22;10647;51.016;3.720;2022-11-20T04:14:52;7.50;99.90
20977;DHT22;10647;51.016;3.720;2022-11-20T04:17:19;7.50;99.90
20977;DHT22;10647;51.016;3.720;2022-11-20T04:19:47;7.50;99.90
20977;DHT22;10647;51.016;3.720;2022-11-20T04:22:14;7.60;99.90
20977;DHT22;10647;51.016;3.720;2022-11-20T04:24:42;7.60;99.90
20977;DHT22;10647;51.016;3.720;2022-11-20T04:27:11;7.60;99.90
20977;DHT22;10647;51.016;3.720;2022-11-20T04:29:39;7.70;99.90
20977;DHT22;10647;51.016;3.720;2022-11-20T04:32:26;7.70;99.90
20977;DHT22;10647;51.016;3.720;2022-11-20T04:34:55;7.60;99.90
20977;DHT22;10647;51.016;3.720;2022-11-20T04:40:17;7.50;99.90
20977;DHT22;10647;51.016;3.720;2022-11-20T04:42:44;7.50;99.90
20977;DHT22;10647;51.016;3.720;2022-11-20T04:45:14;7.40;99.90
20977;DHT22;10647;51.016;3.720;2022-11-20T04:47:41;7.40;99.90
20977;DHT22;10647;51.016;3.720;2022-11-20T04:50:09;7.40;99.90
20977;DHT22;10647;51.016;3.720;2022-11-20T04:52:37;7.40;99.90
20977;DHT22;10647;51.016;3.720;2022-11-20T04:55:07;7.50;99.90
20977;DHT22;10647;51.016;3.720;2022-11-20T04:57:37;7.40;99.90
20977;DHT22;10647;51.016;3.720;2022-11-20T05:00:08;7.50;99.90
20977;DHT22;10647;51.016;3.720;2022-11-20T05:02:39;7.40;99.90
20977;DHT22;10647;51.016;3.720;2022-11-20T05:05:15;7.40;99.90
20977;DHT22;10647;51.016;3.720;2022-11-20T05:07:56;7.50;99.90
20977;DHT22;10647;51.016;3.720;2022-11-20T05:10:24;7.40;99.90
20977;DHT22;10647;51.016;3.720;2022-11-20T05:12:55;7.40;99.90
20977;DHT22;10647;51.016;3.720;2022-11-20T05:15:24;7.50;99.90
20977;DHT22;10647;51.016;3.720;2022-11-20T05:17:57;7.50;99.90
20977;DHT22;10647;51.016;3.720;2022-11-20T05:20:32;7.50;99.90
20977;DHT22;10647;51.016;3.720;2022-11-20T05:22:59;7.60;99.90
20977;DHT22;10647;51.016;3.720;2022-11-20T05:25:27;7.60;99.90
20977;DHT22;10647;51.016;3.720;2022-11-20T05:27:54;7.70;99.90
20977;DHT22;10647;51.016;3.720;2022-11-20T05:30:24;7.70;99.90
20977;DHT22;10647;51.016;3.720;2022-11-20T05:32:54;7.70;99.90
20977;DHT22;10647;51.016;3.720;2022-11-20T05:35:27;7.70;99.90
20977;DHT22;10647;51.016;3.720;2022-11-20T05:37:55;7.70;99.90
20977;DHT22;10647;51.016;3.720;2022-11-20T05:40:24;7.70;99.90
20977;DHT22;10647;51.016;3.720;2022-11-20T05:42:51;7.70;99.90
20977;DHT22;10647;51.016;3.720;2022-11-20T05:45:27;7.70;99.90
20977;DHT22;10647;51.016;3.720;2022-11-20T05:47:59;7.70;99.90
20977;DHT22;10647;51.016;3.720;2022-11-20T05:50:27;7.80;99.90
20977;DHT22;10647;51.016;3.720;2022-11-20T05:53:12;7.70;99.90
20977;DHT22;10647;51.016;3.720;2022-11-20T05:55:40;7.70;99.90
20977;DHT22;10647;51.016;3.720;2022-11-20T05:58:10;7.70;99.90
20977;DHT22;10647;51.016;3.720;2022-11-20T06:00:40;7.70;99.90
20977;DHT22;10647;51.016;3.720;2022-11-20T06:03:11;7.80;99.90
20977;DHT22;10647;51.016;3.720;2022-11-20T06:05:39;7.80;99.90
20977;DHT22;10647;51.016;3.720;2022-11-20T06:08:12;7.80;99.90
20977;DHT22;10647;51.016;3.720;2022-11-20T06:10:40;7.80;99.90
20977;DHT22;10647;51.016;3.720;2022-11-20T06:13:08;7.80;99.90
20977;DHT22;10647;51.016;3.720;2022-11-20T06:15:37;7.80;99.90
20977;DHT22;10647;51.016;3.720;2022-11-20T06:18:04;7.80;99.90
20977;DHT22;10647;51.016;3.720;2022-11-20T06:20:33;7.80;99.90
20977;DHT22;10647;51.016;3.720;2022-11-20T06:23:02;7.90;99.90
20977;DHT22;10647;51.016;3.720;2022-11-20T06:25:31;7.90;99.90
20977;DHT22;10647;51.016;3.720;2022-11-20T06:27:58;7.90;99.90
20977;DHT22;10647;51.016;3.720;2022-11-20T06:30:37;8.00;99.90
20977;DHT22;10647;51.016;3.720;2022-11-20T06:33:04;8.00;99.90
20977;DHT22;10647;51.016;3.720;2022-11-20T06:35:33;8.00;99.90
20977;DHT22;10647;51.016;3.720;2022-11-20T06:38:00;8.00;99.90
20977;DHT22;10647;51.016;3.720;2022-11-20T06:40:29;8.10;99.90
20977;DHT22;10647;51.016;3.720;2022-11-20T06:42:56;8.20;99.90
20977;DHT22;10647;51.016;3.720;2022-11-20T06:45:24;8.20;99.90
20977;DHT22;10647;51.016;3.720;2022-11-20T06:47:51;8.20;99.90
20977;DHT22;10647;51.016;3.720;2022-11-20T06:50:24;8.20;99.90
20977;DHT22;10647;51.016;3.720;2022-11-20T06:52:52;8.30;99.90
20977;DHT22;10647;51.016;3.720;2022-11-20T06:55:19;8.20;99.90
20977;DHT22;10647;51.016;3.720;2022-11-20T06:57:47;8.30;99.90
20977;DHT22;10647;51.016;3.720;2022-11-20T07:00:14;8.20;99.90
20977;DHT22;10647;51.016;3.720;2022-11-20T07:02:42;8.20;99.90
20977;DHT22;10647;51.016;3.720;2022-11-20T07:05:09;8.20;99.90
20977;DHT22;10647;51.016;3.720;2022-11-20T07:07:37;8.30;99.90
20977;DHT22;10647;51.016;3.720;2022-11-20T07:10:05;8.30;99.90
20977;DHT22;10647;51.016;3.720;2022-11-20T07:12:33;8.30;99.90
20977;DHT22;10647;51.016;3.720;2022-11-20T07:15:00;8.30;99.90
20977;DHT22;10647;51.016;3.720;2022-11-20T07:17:28;8.30;99.90
20977;DHT22;10647;51.016;3.720;2022-11-20T07:19:55;8.30;99.90
20977;DHT22;10647;51.016;3.720;2022-11-20T07:22:28;8.30;99.90
20977;DHT22;10647;51.016;3.720;2022-11-20T07:25:10;8.30;99.90
20977;DHT22;10647;51.016;3.720;2022-11-20T07:27:40;8.30;99.90
20977;DHT22;10647;51.016;3.720;2022-11-20T07:30:08;8.40;99.90
20977;DHT22;10647;51.016;3.720;2022-11-20T07:32:38;8.30;99.90
20977;DHT22;10647;51.016;3.720;2022-11-20T07:35:06;8.30;99.90
20977;DHT22;10647;51.016;3.720;2022-11-20T07:37:36;8.40;99.90
20977;DHT22;10647;51.016;3.720;2022-11-20T07:43:01;8.40;99.90
20977;DHT22;10647;51.016;3.720;2022-11-20T07:45:30;8.50;99.90
20977;DHT22;10647;51.016;3.720;2022-11-20T07:48:01;8.50;99.90
20977;DHT22;10647;51.016;3.720;2022-11-20T07:50:31;8.60;99.90
20977;DHT22;10647;51.016;3.720;2022-11-20T07:53:05;8.60;99.90
20977;DHT22;10647;51.016;3.720;2022-11-20T07:55:43;8.70;99.90
20977;DHT22;10647;51.016;3.720;2022-11-20T07:58:10;8.70;99.90
20977;DHT22;10647;51.016;3.720;2022-11-20T08:00:38;8.70;99.90
20977;DHT22;10647;51.016;3.720;2022-11-20T08:03:06;8.70;99.90
20977;DHT22;10647;51.016;3.720;2022-11-20T08:05:39;8.70;99.90
20977;DHT22;10647;51.016;3.720;2022-11-20T08:08:13;8.70;99.90
20977;DHT22;10647;51.016;3.720;2022-11-20T08:10:40;8.80;99.90
20977;DHT22;10647;51.016;3.720;2022-11-20T08:16:16;8.80;99.90
20977;DHT22;10647;51.016;3.720;2022-11-20T08:18:44;8.90;99.90
20977;DHT22;10647;51.016;3.720;2022-11-20T08:21:12;9.00;99.90
20977;DHT22;10647;51.016;3.720;2022-11-20T08:23:40;9.00;99.90
20977;DHT22;10647;51.016;3.720;2022-11-20T08:26:08;9.00;99.90
20977;DHT22;10647;51.016;3.720;2022-11-20T08:28:36;9.00;99.90
20977;DHT22;10647;51.016;3.720;2022-11-20T08:31:05;9.00;99.90
20977;DHT22;10647;51.016;3.720;2022-11-20T08:33:36;9.00;99.90
20977;DHT22;10647;51.016;3.720;2022-11-20T08:36:04;9.00;99.90
20977;DHT22;10647;51.016;3.720;2022-11-20T08:38:34;9.00;99.90
20977;DHT22;10647;51.016;3.720;2022-11-20T08:41:02;9.00;99.90
20977;DHT22;10647;51.016;3.720;2022-11-20T08:44:01;9.00;99.90
20977;DHT22;10647;51.016;3.720;2022-11-20T08:46:36;9.00;99.90
20977;DHT22;10647;51.016;3.720;2022-11-20T08:49:05;9.10;99.90
20977;DHT22;10647;51.016;3.720;2022-11-20T08:51:39;9.10;99.90
20977;DHT22;10647;51.016;3.720;2022-11-20T08:54:07;9.20;99.90
20977;DHT22;10647;51.016;3.720;2022-11-20T08:56:35;9.20;99.90
20977;DHT22;10647;51.016;3.720;2022-11-20T08:59:04;9.30;99.90
20977;DHT22;10647;51.016;3.720;2022-11-20T09:01:31;9.30;99.90
20977;DHT22;10647;51.016;3.720;2022-11-20T09:03:59;9.30;99.90
20977;DHT22;10647;51.016;3.720;2022-11-20T09:06:27;9.30;99.90
20977;DHT22;10647;51.016;3.720;2022-11-20T09:09:00;9.30;99.90
20977;DHT22;10647;51.016;3.720;2022-11-20T09:11:28;9.40;99.90
20977;DHT22;10647;51.016;3.720;2022-11-20T09:13:56;9.50;99.90
20977;DHT22;10647;51.016;3.720;2022-11-20T09:16:23;9.50;99.90
20977;DHT22;10647;51.016;3.720;2022-11-20T09:18:51;9.60;99.90
20977;DHT22;10647;51.016;3.720;2022-11-20T09:21:19;9.70;99.90
20977;DHT22;10647;51.016;3.720;2022-11-20T09:23:51;9.90;99.90
20977;DHT22;10647;51.016;3.720;2022-11-20T09:26:20;10.00;99.90
20977;DHT22;10647;51.016;3.720;2022-11-20T09:28:48;10.10;99.90
20977;DHT22;10647;51.016;3.720;2022-11-20T09:31:22;10.20;99.90
20977;DHT22;10647;51.016;3.720;2022-11-20T09:33:49;10.30;99.90
20977;DHT22;10647;51.016;3.720;2022-11-20T09:36:17;10.30;99.90
20977;DHT22;10647;51.016;3.720;2022-11-20T09:38:49;10.40;99.90
20977;DHT22;10647;51.016;3.720;2022-11-20T09:41:34;10.40;99.90
20977;DHT22;10647;51.016;3.720;2022-11-20T09:49:59;10.70;99.90
20977;DHT22;10647;51.016;3.720;2022-11-20T09:52:52;10.80;99.90
20977;DHT22;10647;51.016;3.720;2022-11-20T09:55:17;10.90;99.90
20977;DHT22;10647;51.016;3.720;2022-11-20T09:57:46;11.10;99.90
20977;DHT22;10647;51.016;3.720;2022-11-20T10:00:15;11.30;99.90
20977;DHT22;10647;51.016;3.720;2022-11-20T10:05:41;11.60;99.90
20977;DHT22;10647;51.016;3.720;2022-11-20T10:08:17;11.60;99.90
20977;DHT22;10647;51.016;3.720;2022-11-20T10:10:54;11.70;99.90
20977;DHT22;10647;51.016;3.720;2022-11-20T10:13:40;11.80;99.90
20977;DHT22;10647;51.016;3.720;2022-11-20T10:16:30;11.70;99.90
20977;DHT22;10647;51.016;3.720;2022-11-20T10:19:22;11.70;99.90
20977;DHT22;10647;51.016;3.720;2022-11-20T10:22:35;11.60;99.90
20977;DHT22;10647;51.016;3.720;2022-11-20T10:25:16;11.70;99.90
20977;DHT22;10647;51.016;3.720;2022-11-20T10:31:00;11.50;99.90
20977;DHT22;10647;51.016;3.720;2022-11-20T10:33:34;11.50;99.90
20977;DHT22;10647;51.016;3.720;2022-11-20T10:38:56;11.60;99.90
20977;DHT22;10647;51.016;3.720;2022-11-20T10:41:30;11.60;99.90
20977;DHT22;10647;51.016;3.720;2022-11-20T10:46:57;11.90;99.90
20977;DHT22;10647;51.016;3.720;2022-11-20T10:49:26;12.00;99.90
20977;DHT22;10647;51.016;3.720;2022-11-20T10:52:11;12.00;99.90
20977;DHT22;10647;51.016;3.720;2022-11-20T10:55:02;12.10;99.90
20977;DHT22;10647;51.016;3.720;2022-11-20T11:00:36;12.10;99.90
20977;DHT22;10647;51.016;3.720;2022-11-20T11:03:47;12.10;99.90
20977;DHT22;10647;51.016;3.720;2022-11-20T11:06:23;12.20;99.90
20977;DHT22;10647;51.016;3.720;2022-11-20T11:09:01;12.30;99.90
20977;DHT22;10647;51.016;3.720;2022-11-20T11:11:33;12.30;99.90
20977;DHT22;10647;51.016;3.720;2022-11-20T11:14:10;12.30;99.90
20977;DHT22;10647;51.016;3.720;2022-11-20T11:19:41;12.10;99.90
20977;DHT22;10647;51.016;3.720;2022-11-20T11:22:18;12.10;99.90
20977;DHT22;10647;51.016;3.720;2022-11-20T11:24:54;12.20;99.90
20977;DHT22;10647;51.016;3.720;2022-11-20T11:27:25;12.10;99.90
20977;DHT22;10647;51.016;3.720;2022-11-20T11:30:11;11.90;99.90
20977;DHT22;10647;51.016;3.720;2022-11-20T11:32:33;11.70;99.90
20977;DHT22;10647;51.016;3.720;2022-11-20T11:35:20;11.60;99.90
20977;DHT22;10647;51.016;3.720;2022-11-20T11:37:51;11.50;99.90
20977;DHT22;10647;51.016;3.720;2022-11-20T11:40:32;11.50;99.90
20977;DHT22;10647;51.016;3.720;2022-11-20T11:43:07;11.40;99.90
20977;DHT22;10647;51.016;3.720;2022-11-20T11:45:39;11.20;99.90
20977;DHT22;10647;51.016;3.720;2022-11-20T11:48:10;11.10;99.90
20977;DHT22;10647;51.016;3.720;2022-11-20T11:50:48;10.90;99.90
20977;DHT22;10647;51.016;3.720;2022-11-20T11:53:34;10.80;99.90
20977;DHT22;10647;51.016;3.720;2022-11-20T11:56:10;10.70;99.90
20977;DHT22;10647;51.016;3.720;2022-11-20T11:58:57;10.70;99.90
20977;DHT22;10647;51.016;3.720;2022-11-20T12:07:01;10.70;99.90
20977;DHT22;10647;51.016;3.720;2022-11-20T12:09:42;10.80;99.90
20977;DHT22;10647;51.016;3.720;2022-11-20T12:12:25;10.80;99.90
20977;DHT22;10647;51.016;3.720;2022-11-20T12:14:49;10.80;99.90
20977;DHT22;10647;51.016;3.720;2022-11-20T12:17:18;10.90;99.90
20977;DHT22;10647;51.016;3.720;2022-11-20T12:19:48;10.80;99.90
20977;DHT22;10647;51.016;3.720;2022-11-20T12:25:18;10.90;99.90
20977;DHT22;10647;51.016;3.720;2022-11-20T12:27:49;10.80;99.90
20977;DHT22;10647;51.016;3.720;2022-11-20T12:30:22;10.80;99.90
20977;DHT22;10647;51.016;3.720;2022-11-20T12:33:07;10.80;99.90
20977;DHT22;10647;51.016;3.720;2022-11-20T12:41:19;10.80;99.90
20977;DHT22;10647;51.016;3.720;2022-11-20T12:44:08;10.90;99.90
20977;DHT22;10647;51.016;3.720;2022-11-20T12:46:57;10.90;99.90
20977;DHT22;10647;51.016;3.720;2022-11-20T12:52:56;10.90;99.90
20977;DHT22;10647;51.016;3.720;2022-11-20T12:55:32;10.90;99.90
20977;DHT22;10647;51.016;3.720;2022-11-20T12:58:33;10.80;99.90
20977;DHT22;10647;51.016;3.720;2022-11-20T13:03:57;10.80;99.90
20977;DHT22;10647;51.016;3.720;2022-11-20T13:06:26;10.70;99.90
20977;DHT22;10647;51.016;3.720;2022-11-20T13:08:55;10.80;99.90
20977;DHT22;10647;51.016;3.720;2022-11-20T13:11:37;10.80;99.90
20977;DHT22;10647;51.016;3.720;2022-11-20T13:16:55;10.80;99.90
20977;DHT22;10647;51.016;3.720;2022-11-20T13:19:22;10.80;99.90
20977;DHT22;10647;51.016;3.720;2022-11-20T13:21:51;10.70;99.90
20977;DHT22;10647;51.016;3.720;2022-11-20T13:24:31;10.70;99.90
20977;DHT22;10647;51.016;3.720;2022-11-20T13:29:35;10.70;99.90
20977;DHT22;10647;51.016;3.720;2022-11-20T13:35:04;10.80;99.90
20977;DHT22;10647;51.016;3.720;2022-11-20T13:37:36;10.80;99.90
20977;DHT22;10647;51.016;3.720;2022-11-20T13:40:20;10.80;99.90
20977;DHT22;10647;51.016;3.720;2022-11-20T13:42:46;10.70;99.90
20977;DHT22;10647;51.016;3.720;2022-11-20T13:45:32;10.70;99.90
20977;DHT22;10647;51.016;3.720;2022-11-20T13:48:17;10.60;99.90
20977;DHT22;10647;51.016;3.720;2022-11-20T13:55:45;10.60;99.90
20977;DHT22;10647;51.016;3.720;2022-11-20T14:01:17;10.60;99.90
20977;DHT22;10647;51.016;3.720;2022-11-20T14:03:47;10.70;99.90
20977;DHT22;10647;51.016;3.720;2022-11-20T14:06:26;10.70;99.90
20977;DHT22;10647;51.016;3.720;2022-11-20T14:09:35;10.80;99.90
20977;DHT22;10647;51.016;3.720;2022-11-20T14:11:48;11.10;99.90
20977;DHT22;10647;51.016;3.720;2022-11-20T14:14:21;11.40;99.90
20977;DHT22;10647;51.016;3.720;2022-11-20T14:16:52;11.70;99.90
20977;DHT22;10647;51.016;3.720;2022-11-20T14:22:06;11.90;99.90
20977;DHT22;10647;51.016;3.720;2022-11-20T14:24:24;12.10;99.90
20977;DHT22;10647;51.016;3.720;2022-11-20T14:26:53;12.10;99.90
20977;DHT22;10647;51.016;3.720;2022-11-20T14:29:29;12.20;99.90
20977;DHT22;10647;51.016;3.720;2022-11-20T14:31:57;12.40;99.90
20977;DHT22;10647;51.016;3.720;2022-11-20T14:34:27;12.50;99.90
20977;DHT22;10647;51.016;3.720;2022-11-20T14:39:52;12.60;99.90
20977;DHT22;10647;51.016;3.720;2022-11-20T14:45:12;12.90;99.90
20977;DHT22;10647;51.016;3.720;2022-11-20T14:47:41;13.30;99.90
20977;DHT22;10647;51.016;3.720;2022-11-20T14:50:27;13.20;99.90
20977;DHT22;10647;51.016;3.720;2022-11-20T14:52:57;13.20;99.90
20977;DHT22;10647;51.016;3.720;2022-11-20T14:55:33;13.10;99.90
20977;DHT22;10647;51.016;3.720;2022-11-20T14:58:18;13.00;99.90
20977;DHT22;10647;51.016;3.720;2022-11-20T15:00:35;12.80;99.90
20977;DHT22;10647;51.016;3.720;2022-11-20T15:05:58;12.40;99.90
20977;DHT22;10647;51.016;3.720;2022-11-20T15:08:26;12.20;99.90
20977;DHT22;10647;51.016;3.720;2022-11-20T15:10:54;12.10;99.90
20977;DHT22;10647;51.016;3.720;2022-11-20T15:13:33;12.00;99.90
20977;DHT22;10647;51.016;3.720;2022-11-20T15:16:20;11.90;99.90
20977;DHT22;10647;51.016;3.720;2022-11-20T15:18:49;11.90;99.90
20977;DHT22;10647;51.016;3.720;2022-11-20T15:21:19;11.80;99.90
20977;DHT22;10647;51.016;3.720;2022-11-20T15:23:49;11.70;99.90
20977;DHT22;10647;51.016;3.720;2022-11-20T15:26:24;11.50;99.90
20977;DHT22;10647;51.016;3.720;2022-11-20T15:28:51;11.40;99.90
20977;DHT22;10647;51.016;3.720;2022-11-20T15:31:21;11.30;99.90
20977;DHT22;10647;51.016;3.720;2022-11-20T15:33:49;11.20;99.90
20977;DHT22;10647;51.016;3.720;2022-11-20T15:36:17;11.20;99.90
20977;DHT22;10647;51.016;3.720;2022-11-20T15:38:45;11.20;99.90
20977;DHT22;10647;51.016;3.720;2022-11-20T15:41:16;11.20;99.90
20977;DHT22;10647;51.016;3.720;2022-11-20T15:43:43;11.20;99.90
20977;DHT22;10647;51.016;3.720;2022-11-20T15:46:21;11.20;99.90
20977;DHT22;10647;51.016;3.720;2022-11-20T15:48:54;11.10;99.90
20977;DHT22;10647;51.016;3.720;2022-11-20T15:51:29;10.90;99.90
20977;DHT22;10647;51.016;3.720;2022-11-20T15:53:58;10.80;99.90
20977;DHT22;10647;51.016;3.720;2022-11-20T15:56:26;10.70;99.90
20977;DHT22;10647;51.016;3.720;2022-11-20T15:58:55;10.70;99.90
20977;DHT22;10647;51.016;3.720;2022-11-20T16:01:42;10.80;99.90
20977;DHT22;10647;51.016;3.720;2022-11-20T16:04:11;10.70;99.90
20977;DHT22;10647;51.016;3.720;2022-11-20T16:06:39;10.70;99.90
20977;DHT22;10647;51.016;3.720;2022-11-20T16:09:07;10.70;99.90
20977;DHT22;10647;51.016;3.720;2022-11-20T16:11:38;10.80;99.90
20977;DHT22;10647;51.016;3.720;2022-11-20T16:14:05;10.90;99.90
20977;DHT22;10647;51.016;3.720;2022-11-20T16:16:51;10.90;99.90
20977;DHT22;10647;51.016;3.720;2022-11-20T16:19:18;11.00;99.90
20977;DHT22;10647;51.016;3.720;2022-11-20T16:21:49;11.00;99.90
20977;DHT22;10647;51.016;3.720;2022-11-20T16:24:17;11.00;99.90
20977;DHT22;10647;51.016;3.720;2022-11-20T16:26:45;10.90;99.90
20977;DHT22;10647;51.016;3.720;2022-11-20T16:29:14;10.90;99.90
20977;DHT22;10647;51.016;3.720;2022-11-20T16:31:41;10.90;99.90
20977;DHT22;10647;51.016;3.720;2022-11-20T16:34:09;10.90;99.90
20977;DHT22;10647;51.016;3.720;2022-11-20T16:36:40;10.90;99.90
20977;DHT22;10647;51.016;3.720;2022-11-20T16:39:08;11.00;99.90
20977;DHT22;10647;51.016;3.720;2022-11-20T16:41:36;10.90;99.90
20977;DHT22;10647;51.016;3.720;2022-11-20T16:44:09;10.90;99.90
20977;DHT22;10647;51.016;3.720;2022-11-20T16:46:37;10.90;99.90
20977;DHT22;10647;51.016;3.720;2022-11-20T16:49:16;10.90;99.90
20977;DHT22;10647;51.016;3.720;2022-11-20T16:51:37;10.90;99.90
20977;DHT22;10647;51.016;3.720;2022-11-20T16:54:24;11.00;99.90
20977;DHT22;10647;51.016;3.720;2022-11-20T16:56:52;11.00;99.90
20977;DHT22;10647;51.016;3.720;2022-11-20T16:59:19;11.00;99.90
20977;DHT22;10647;51.016;3.720;2022-11-20T17:01:47;10.90;99.90
20977;DHT22;10647;51.016;3.720;2022-11-20T17:04:16;10.90;99.90
20977;DHT22;10647;51.016;3.720;2022-11-20T17:06:44;11.00;99.90
20977;DHT22;10647;51.016;3.720;2022-11-20T17:09:13;11.00;99.90
20977;DHT22;10647;51.016;3.720;2022-11-20T17:11:40;11.00;99.90
20977;DHT22;10647;51.016;3.720;2022-11-20T17:14:10;11.00;99.90
20977;DHT22;10647;51.016;3.720;2022-11-20T17:16:38;11.00;99.90
20977;DHT22;10647;51.016;3.720;2022-11-20T17:19:06;11.00;99.90
20977;DHT22;10647;51.016;3.720;2022-11-20T17:21:35;11.00;99.90
20977;DHT22;10647;51.016;3.720;2022-11-20T17:24:04;11.00;99.90
20977;DHT22;10647;51.016;3.720;2022-11-20T17:26:33;10.90;99.90
20977;DHT22;10647;51.016;3.720;2022-11-20T17:29:04;10.80;99.90
20977;DHT22;10647;51.016;3.720;2022-11-20T17:31:33;10.80;99.90
20977;DHT22;10647;51.016;3.720;2022-11-20T17:34:03;10.80;99.90
20977;DHT22;10647;51.016;3.720;2022-11-20T17:39:25;10.80;99.90
20977;DHT22;10647;51.016;3.720;2022-11-20T17:41:58;10.80;99.90